createdAt,value
2022-11-02T00:00:41.216Z,50923.31
2022-11-02T00:03:08.610Z,50957.09
2022-11-02T00:05:35.997Z,50961.06
2022-11-02T00:08:02.736Z,50949.16
2022-11-02T00:10:30.053Z,50986.91
2022-11-02T00:12:56.725Z,50961.06
2022-11-02T00:15:24.796Z,50969.03
2022-11-02T00:17:54.018Z,50953.13
2022-11-02T00:20:20.899Z,50976.97
2022-11-02T00:22:49.995Z,51016.72
2022-11-02T00:25:18.549Z,50919.34
2022-11-02T00:27:45.158Z,50980.97
2022-11-02T00:30:14.275Z,50965.06
2022-11-02T00:32:41.165Z,50996.84
2022-11-02T00:35:07.919Z,50937.22
2022-11-02T00:37:34.612Z,50969.03
2022-11-02T00:40:01.220Z,50961.06
2022-11-02T00:42:28.752Z,50975.00
2022-11-02T00:44:56.204Z,50935.25
2022-11-02T00:47:22.878Z,50980.97
2022-11-02T00:49:49.596Z,50998.84
2022-11-02T00:52:16.494Z,50945.19
2022-11-02T00:54:47.810Z,50945.19
2022-11-02T00:57:14.433Z,51004.81
2022-11-02T00:59:41.058Z,50980.97
2022-11-02T01:02:08.000Z,50965.06
2022-11-02T01:04:34.748Z,50921.31
2022-11-02T01:07:01.979Z,50947.16
2022-11-02T01:09:28.624Z,50941.19
2022-11-02T01:11:55.293Z,50957.09
2022-11-02T01:14:21.953Z,50992.88
2022-11-02T01:16:48.897Z,50988.91
2022-11-02T01:19:15.589Z,50988.91
2022-11-02T01:21:42.176Z,50953.13
2022-11-02T01:24:08.799Z,50937.22
2022-11-02T01:26:35.918Z,50969.03
2022-11-02T01:29:02.538Z,50992.88
2022-11-02T01:31:29.070Z,50980.97
2022-11-02T01:33:55.650Z,50984.94
2022-11-02T01:38:54.883Z,50941.19
2022-11-02T01:41:21.920Z,50973.00
2022-11-02T01:43:50.169Z,50996.84
2022-11-02T01:46:19.028Z,50984.94
2022-11-02T01:48:45.577Z,50957.09
2022-11-02T01:51:20.208Z,50984.94
2022-11-02T01:53:48.114Z,50969.03
2022-11-02T01:56:17.170Z,50957.09
2022-11-02T01:58:46.025Z,50988.91
2022-11-02T02:01:12.897Z,50963.06
2022-11-02T02:03:40.149Z,50996.84
2022-11-02T02:06:18.042Z,50933.25
2022-11-02T02:08:49.761Z,50969.03
2022-11-02T02:11:29.819Z,51008.78
2022-11-02T02:13:59.225Z,50969.03
2022-11-02T02:16:33.581Z,50980.97
2022-11-02T02:19:04.733Z,50953.13
2022-11-02T02:21:40.616Z,50969.03
2022-11-02T02:24:16.551Z,50986.91
2022-11-02T02:26:47.167Z,50955.13
2022-11-02T02:29:21.735Z,50965.06
2022-11-02T02:31:54.261Z,50969.03
2022-11-02T02:34:23.256Z,51000.84
2022-11-02T02:36:49.914Z,50957.09
2022-11-02T02:39:21.706Z,50984.94
2022-11-02T02:41:54.438Z,50961.06
2022-11-02T02:44:23.129Z,50988.91
2022-11-02T02:47:19.408Z,50947.16
2022-11-02T02:49:50.422Z,50973.00
2022-11-02T02:52:18.215Z,50980.97
2022-11-02T02:54:46.771Z,50971.03
2022-11-02T02:57:17.540Z,50986.91
2022-11-02T02:59:45.424Z,50980.97
2022-11-02T03:02:21.621Z,50949.16
2022-11-02T03:04:48.377Z,50976.97
2022-11-02T03:07:19.759Z,50961.06
2022-11-02T03:09:50.458Z,50984.94
2022-11-02T03:12:32.427Z,50982.94
2022-11-02T03:15:11.726Z,51024.69
2022-11-02T03:17:57.665Z,50992.88
2022-11-02T03:20:39.812Z,50978.97
2022-11-02T03:23:06.355Z,50965.06
2022-11-02T03:25:47.859Z,50984.94
2022-11-02T03:28:41.607Z,51008.78
2022-11-02T03:31:21.905Z,50973.00
2022-11-02T03:34:05.449Z,50976.97
2022-11-02T03:36:55.420Z,50965.06
2022-11-02T03:39:30.466Z,50996.84
2022-11-02T03:42:00.816Z,50976.97
2022-11-02T03:44:29.070Z,50984.94
2022-11-02T03:47:00.045Z,50992.88
2022-11-02T03:49:28.698Z,50988.91
2022-11-02T03:51:56.566Z,50976.97
2022-11-02T03:54:33.513Z,50998.84
2022-11-02T03:59:35.598Z,50998.84
2022-11-02T04:02:02.737Z,50941.19
2022-11-02T04:04:30.483Z,50961.06
2022-11-02T04:06:57.584Z,50969.03
2022-11-02T04:09:24.323Z,51004.81
2022-11-02T04:12:09.853Z,50965.06
2022-11-02T04:14:40.200Z,50992.88
2022-11-02T04:17:35.096Z,51008.78
2022-11-02T04:20:05.997Z,50992.88
2022-11-02T04:22:51.402Z,50986.91
2022-11-02T04:25:19.315Z,51020.72
2022-11-02T04:28:09.187Z,50980.97
2022-11-02T04:30:41.251Z,50976.97
2022-11-02T04:33:26.969Z,51012.75
2022-11-02T04:36:03.780Z,50975.00
2022-11-02T04:38:40.386Z,50976.97
2022-11-02T04:41:37.663Z,50976.97
2022-11-02T04:44:08.425Z,50975.00
2022-11-02T04:46:35.964Z,51010.78
2022-11-02T04:49:03.846Z,51020.72
2022-11-02T04:51:31.985Z,50996.84
2022-11-02T04:53:59.070Z,50953.13
2022-11-02T04:56:26.572Z,50992.88
2022-11-02T04:58:56.335Z,50988.91
2022-11-02T05:01:25.220Z,50984.94
2022-11-02T05:03:53.485Z,50996.84
2022-11-02T05:06:21.135Z,50988.91
2022-11-02T05:08:49.141Z,50973.00
2022-11-02T05:11:16.146Z,50984.94
2022-11-02T05:13:44.564Z,50992.88
2022-11-02T05:16:12.814Z,51024.69
2022-11-02T05:18:39.830Z,50996.84
2022-11-02T05:21:07.222Z,51022.69
2022-11-02T05:23:34.318Z,50992.88
2022-11-02T05:26:05.925Z,50973.00
2022-11-02T05:28:34.347Z,50982.94
2022-11-02T05:31:03.465Z,51006.78
2022-11-02T05:33:32.630Z,51020.72
2022-11-02T05:36:04.861Z,50984.94
2022-11-02T05:38:33.780Z,50978.97
2022-11-02T05:41:01.394Z,50988.91
2022-11-02T05:43:33.024Z,50998.84
2022-11-02T05:46:02.120Z,50992.88
2022-11-02T05:48:31.038Z,50986.91
2022-11-02T05:50:58.637Z,50996.84
2022-11-02T05:53:26.747Z,51012.75
2022-11-02T05:55:57.263Z,51008.78
2022-11-02T05:58:24.557Z,50984.94
2022-11-02T06:00:51.128Z,50992.88
2022-11-02T06:03:17.921Z,51018.72
2022-11-02T06:05:44.813Z,50994.88
2022-11-02T06:08:11.656Z,51026.69
2022-11-02T06:10:38.605Z,50984.94
2022-11-02T06:13:05.555Z,51012.75
2022-11-02T06:15:32.786Z,50992.88
2022-11-02T06:18:00.030Z,50996.84
2022-11-02T06:20:26.624Z,51004.81
2022-11-02T06:22:53.411Z,50994.88
2022-11-02T06:25:20.010Z,51016.72
2022-11-02T06:27:53.562Z,51036.63
2022-11-02T06:30:21.208Z,50996.84
2022-11-02T06:32:51.749Z,50961.06
2022-11-02T06:35:19.646Z,51016.72
2022-11-02T06:37:46.554Z,50976.97
2022-11-02T06:40:13.673Z,50992.88
2022-11-02T06:42:45.321Z,51042.56
2022-11-02T06:45:23.562Z,50992.88
2022-11-02T06:47:50.208Z,51008.78
2022-11-02T06:50:17.018Z,51028.66
2022-11-02T06:52:44.541Z,51004.81
2022-11-02T06:55:11.794Z,51012.75
2022-11-02T06:57:39.032Z,51036.63
2022-11-02T07:00:06.683Z,51032.63
2022-11-02T07:02:33.570Z,51032.63
2022-11-02T07:05:00.238Z,51008.78
2022-11-02T07:07:26.968Z,51024.69
2022-11-02T07:09:53.546Z,51020.72
2022-11-02T07:12:23.022Z,51016.72
2022-11-02T07:14:49.942Z,50976.97
2022-11-02T07:17:16.596Z,51012.75
2022-11-02T07:19:43.148Z,50976.97
2022-11-02T07:22:09.742Z,51008.78
2022-11-02T07:24:36.310Z,50982.94
2022-11-02T07:27:02.953Z,51016.72
2022-11-02T07:29:29.562Z,51048.53
2022-11-02T07:31:56.228Z,51004.81
2022-11-02T07:34:23.322Z,51004.81
2022-11-02T07:36:49.997Z,51022.69
2022-11-02T07:39:17.807Z,50986.91
2022-11-02T07:41:49.331Z,50988.91
2022-11-02T07:44:18.289Z,51040.59
2022-11-02T07:46:53.790Z,51008.78
2022-11-02T07:49:21.605Z,51004.81
2022-11-02T07:51:48.478Z,50982.94
2022-11-02T07:54:15.094Z,51046.56
2022-11-02T07:56:41.684Z,51010.78
2022-11-02T07:59:10.255Z,50984.94
2022-11-02T08:01:36.982Z,51008.78
2022-11-02T08:04:03.658Z,50988.91
2022-11-02T08:06:30.285Z,50996.84
2022-11-02T08:08:56.891Z,50988.91
2022-11-02T08:11:23.422Z,51000.84
2022-11-02T08:13:50.077Z,51008.78
2022-11-02T08:16:16.635Z,51032.63
2022-11-02T08:18:43.236Z,51006.78
2022-11-02T08:21:09.885Z,51030.66
2022-11-02T08:23:36.521Z,51028.66
2022-11-02T08:26:03.191Z,50976.97
2022-11-02T08:28:36.632Z,51008.78
2022-11-02T08:31:03.785Z,51022.69
2022-11-02T08:33:30.540Z,51024.69
2022-11-02T08:36:01.009Z,51012.75
2022-11-02T08:38:27.706Z,51024.69
2022-11-02T08:40:55.016Z,51008.78
2022-11-02T08:43:23.614Z,51032.63
2022-11-02T08:48:36.778Z,51004.81
2022-11-02T08:51:05.555Z,50973.00
2022-11-02T08:53:32.364Z,51020.72
2022-11-02T08:55:59.197Z,51004.81
2022-11-02T08:58:25.921Z,50992.88
2022-11-02T09:00:53.157Z,51010.78
2022-11-02T09:03:26.202Z,50990.91
2022-11-02T09:05:57.573Z,51024.69
2022-11-02T09:10:58.101Z,50992.88
2022-11-02T09:13:25.659Z,50996.84
2022-11-02T09:15:53.874Z,50984.94
2022-11-02T09:18:20.522Z,51028.66
2022-11-02T09:20:48.694Z,51032.63
2022-11-02T09:23:15.852Z,51034.63
2022-11-02T09:25:42.468Z,51004.81
2022-11-02T09:28:09.587Z,50996.84
2022-11-02T09:30:36.661Z,51038.59
2022-11-02T09:33:06.537Z,50988.91
2022-11-02T09:35:35.021Z,51032.63
2022-11-02T09:38:02.047Z,51036.63
2022-11-02T09:40:30.313Z,51018.72
2022-11-02T09:43:09.128Z,51008.78
2022-11-02T09:45:56.189Z,51000.84
2022-11-02T09:48:28.525Z,51000.84
2022-11-02T09:51:03.428Z,51016.72
2022-11-02T09:53:33.592Z,50988.91
2022-11-02T09:56:00.780Z,50996.84
2022-11-02T09:58:30.389Z,50990.91
2022-11-02T10:01:01.803Z,51012.75
2022-11-02T10:03:31.823Z,51020.72
2022-11-02T10:06:08.381Z,51016.72
2022-11-02T10:08:50.397Z,51000.84
2022-11-02T10:14:13.067Z,50998.84
2022-11-02T10:16:59.841Z,51020.72
2022-11-02T10:19:30.250Z,50980.97
2022-11-02T10:21:58.427Z,51080.34
2022-11-02T10:24:28.015Z,50996.84
2022-11-02T10:26:56.714Z,50994.88
2022-11-02T10:29:30.208Z,50976.97
2022-11-02T10:31:56.802Z,50992.88
2022-11-02T10:34:27.825Z,51010.78
2022-11-02T10:37:03.521Z,50992.88
2022-11-02T10:39:35.008Z,51000.84
2022-11-02T10:42:12.032Z,51032.63
2022-11-02T10:44:57.466Z,51008.78
2022-11-02T10:47:25.579Z,51040.59
2022-11-02T10:50:02.306Z,50992.88
2022-11-02T10:52:33.718Z,50982.94
2022-11-02T10:55:00.328Z,50998.84
2022-11-02T10:57:27.963Z,51008.78
2022-11-02T11:00:13.078Z,51032.63
2022-11-02T11:02:39.633Z,50996.84
2022-11-02T11:05:13.919Z,51004.81
2022-11-02T11:07:43.767Z,50998.84
2022-11-02T11:10:15.193Z,51016.72
2022-11-02T11:12:43.032Z,51016.72
2022-11-02T11:20:59.063Z,51004.81
2022-11-02T11:23:26.152Z,51008.78
2022-11-02T11:25:55.960Z,50978.97
2022-11-02T11:28:30.108Z,50986.91
2022-11-02T11:31:05.955Z,51024.69
2022-11-02T11:33:33.931Z,51008.78
2022-11-02T11:36:00.708Z,50988.91
2022-11-02T11:38:27.428Z,50961.06
2022-11-02T11:40:56.784Z,51012.75
2022-11-02T11:43:25.557Z,51008.78
2022-11-02T11:46:03.673Z,50998.84
2022-11-02T11:48:35.384Z,50976.97
2022-11-02T11:51:03.555Z,51012.75
2022-11-02T11:53:30.803Z,50992.88
2022-11-02T11:55:58.504Z,51014.75
2022-11-02T11:58:26.801Z,50990.91
2022-11-02T12:01:09.142Z,50988.91
2022-11-02T12:03:49.702Z,50984.94
2022-11-02T12:06:22.173Z,50984.94
2022-11-02T12:09:01.596Z,51004.81
2022-11-02T12:11:46.626Z,50990.91
2022-11-02T12:14:28.516Z,50996.84
2022-11-02T12:17:07.305Z,50996.84
2022-11-02T12:19:34.313Z,51000.84
2022-11-02T12:22:05.744Z,50953.13
2022-11-02T12:24:32.380Z,51012.75
2022-11-02T12:27:15.589Z,50949.16
2022-11-02T12:29:42.126Z,50945.19
2022-11-02T12:32:14.533Z,50951.13
2022-11-02T12:34:41.292Z,50965.06
2022-11-02T12:39:57.497Z,50953.13
2022-11-02T12:42:24.074Z,50949.16
2022-11-02T12:44:56.773Z,50929.28
2022-11-02T12:47:42.210Z,50953.13
2022-11-02T12:50:17.939Z,50951.13
2022-11-02T12:52:52.338Z,50969.03
2022-11-02T12:55:21.893Z,50909.41
2022-11-02T12:57:49.043Z,50925.31
2022-11-02T13:00:18.417Z,50949.16
2022-11-02T13:02:55.328Z,50905.41
2022-11-02T13:05:25.355Z,50921.31
2022-11-02T13:07:54.791Z,50921.31
2022-11-02T13:10:24.938Z,50921.31
2022-11-02T13:12:53.479Z,50921.31
2022-11-02T13:15:22.635Z,50929.28
2022-11-02T13:17:52.345Z,50949.16
2022-11-02T13:20:21.369Z,50969.03
2022-11-02T13:22:55.929Z,50919.34
2022-11-02T13:25:26.444Z,50929.28
2022-11-02T13:28:04.221Z,50945.19
2022-11-02T13:30:33.015Z,50905.41
2022-11-02T13:33:15.929Z,50913.38
2022-11-02T13:35:43.327Z,50915.38
2022-11-02T13:38:13.025Z,50973.00
2022-11-02T13:40:48.953Z,50919.34
2022-11-02T13:43:31.848Z,50941.19
2022-11-02T13:46:17.118Z,50929.28
2022-11-02T13:48:59.255Z,50913.38
2022-11-02T13:51:28.606Z,50897.47
2022-11-02T13:53:58.940Z,50913.38
2022-11-02T13:56:27.362Z,50933.25
2022-11-02T13:58:56.892Z,50941.19
2022-11-02T14:01:24.307Z,50897.47
2022-11-02T14:03:57.364Z,50929.28
2022-11-02T14:06:27.497Z,50929.28
2022-11-02T14:09:05.840Z,50937.22
2022-11-02T14:11:41.509Z,50913.38
2022-11-02T14:14:10.814Z,50921.31
2022-11-02T14:16:46.602Z,50923.31
2022-11-02T14:19:19.572Z,50921.31
2022-11-02T14:21:49.896Z,50921.31
2022-11-02T14:24:34.748Z,50917.34
2022-11-02T14:27:24.480Z,50937.22
2022-11-02T14:29:52.350Z,50917.34
2022-11-02T14:32:23.921Z,50923.31
2022-11-02T14:35:09.279Z,50957.09
2022-11-02T14:37:49.836Z,50945.19
2022-11-02T14:40:27.999Z,50961.06
2022-11-02T14:42:57.489Z,50949.16
2022-11-02T14:45:47.100Z,50931.25
2022-11-02T14:48:16.274Z,50945.19
2022-11-02T14:51:03.138Z,50925.31
2022-11-02T14:53:32.096Z,50925.31
2022-11-02T14:55:58.747Z,50941.19
2022-11-02T14:58:31.696Z,50929.28
2022-11-02T15:01:00.591Z,50921.31
2022-11-02T15:03:27.386Z,50953.13
2022-11-02T15:06:13.440Z,50965.06
2022-11-02T15:08:43.081Z,50953.13
2022-11-02T15:11:28.280Z,50969.03
2022-11-02T15:13:54.945Z,50953.13
2022-11-02T15:16:22.477Z,50980.97
2022-11-02T15:18:49.035Z,50953.13
2022-11-02T15:21:17.473Z,50957.09
2022-11-02T15:23:46.846Z,50976.97
2022-11-02T15:26:16.407Z,50957.09
2022-11-02T15:28:44.478Z,50953.13
2022-11-02T15:31:25.923Z,50941.19
2022-11-02T15:33:58.019Z,50941.19
2022-11-02T15:36:24.885Z,50957.09
2022-11-02T15:38:52.853Z,50925.31
2022-11-02T15:41:31.982Z,50980.97
2022-11-02T15:44:17.067Z,50969.03
2022-11-02T15:46:46.539Z,50984.94
2022-11-02T15:49:19.923Z,50967.03
2022-11-02T15:51:55.293Z,50973.00
2022-11-02T15:54:21.988Z,50965.06
2022-11-02T15:57:24.152Z,50992.88
2022-11-02T16:00:04.040Z,50965.06
2022-11-02T16:02:36.984Z,50984.94
2022-11-02T16:05:06.069Z,50949.16
2022-11-02T16:07:50.319Z,50949.16
2022-11-02T16:10:26.269Z,50961.06
2022-11-02T16:12:56.408Z,50947.16
2022-11-02T16:15:23.301Z,50965.06
2022-11-02T16:17:50.246Z,50957.09
2022-11-02T16:20:21.794Z,50973.00
2022-11-02T16:22:49.097Z,50961.06
2022-11-02T16:25:32.676Z,50973.00
2022-11-02T16:28:22.097Z,50980.97
2022-11-02T16:31:13.579Z,50992.88
2022-11-02T16:33:45.803Z,50971.03
2022-11-02T16:36:15.841Z,51004.81
2022-11-02T16:38:56.476Z,50933.25
2022-11-02T16:41:24.929Z,50992.88
2022-11-02T16:43:51.662Z,50996.84
2022-11-02T16:46:27.902Z,50980.97
2022-11-02T16:49:15.320Z,50941.19
2022-11-02T16:51:48.095Z,50961.06
2022-11-02T16:54:33.696Z,50941.19
2022-11-02T16:57:20.720Z,50957.09
2022-11-02T16:59:50.961Z,50963.06
2022-11-02T17:02:18.724Z,50961.06
2022-11-02T17:04:47.712Z,50957.09
2022-11-02T17:07:22.629Z,50949.16
2022-11-02T17:09:51.825Z,50937.22
2022-11-02T17:12:18.614Z,50951.13
2022-11-02T17:14:47.163Z,50953.13
2022-11-02T17:17:22.611Z,50955.13
2022-11-02T17:19:56.696Z,50988.91
2022-11-02T17:22:25.333Z,50959.09
2022-11-02T17:25:07.158Z,50969.03
2022-11-02T17:27:39.087Z,50937.22
2022-11-02T17:30:28.704Z,50941.19
2022-11-02T17:32:56.053Z,50978.97
2022-11-02T17:35:27.027Z,50957.09
2022-11-02T17:37:54.403Z,50967.03
2022-11-02T17:40:22.045Z,50953.13
2022-11-02T17:43:02.141Z,50941.19
2022-11-02T17:45:30.121Z,50933.25
2022-11-02T17:47:57.791Z,50973.00
2022-11-02T17:50:31.299Z,50975.00
2022-11-02T17:52:59.955Z,50929.28
2022-11-02T17:55:31.223Z,50951.13
2022-11-02T17:57:58.324Z,50961.06
2022-11-02T18:00:27.876Z,50984.94
2022-11-02T18:02:55.811Z,50949.16
2022-11-02T18:05:35.930Z,50971.03
2022-11-02T18:08:04.034Z,50945.19
2022-11-02T18:10:32.579Z,50988.91
2022-11-02T18:12:59.367Z,50957.09
2022-11-02T18:15:27.243Z,50945.19
2022-11-02T18:17:54.961Z,50949.16
2022-11-02T18:20:22.293Z,50992.88
2022-11-02T18:22:49.012Z,50945.19
2022-11-02T18:25:17.117Z,50988.91
2022-11-02T18:27:44.540Z,50965.06
2022-11-02T18:30:12.322Z,50909.41
2022-11-02T18:32:39.689Z,50945.19
2022-11-02T18:35:07.639Z,50945.19
2022-11-02T18:37:34.366Z,50957.09
2022-11-02T18:40:00.920Z,50973.00
2022-11-02T18:42:27.573Z,50949.16
2022-11-02T18:44:54.260Z,50937.22
2022-11-02T18:47:20.847Z,50949.16
2022-11-02T18:49:47.706Z,50947.16
2022-11-02T18:52:19.696Z,50941.19
2022-11-02T18:54:48.941Z,50933.25
2022-11-02T18:57:15.575Z,50947.16
2022-11-02T18:59:42.188Z,50965.06
2022-11-02T19:02:09.805Z,50961.06
2022-11-02T19:04:36.580Z,50941.19
2022-11-02T19:07:21.981Z,50961.06
2022-11-02T19:09:48.570Z,50951.13
2022-11-02T19:12:19.781Z,50965.06
2022-11-02T19:14:47.156Z,50969.03
2022-11-02T19:17:14.354Z,50949.16
2022-11-02T19:19:43.069Z,50965.06
2022-11-02T19:22:11.981Z,50945.19
2022-11-02T19:24:38.745Z,50945.19
2022-11-02T19:27:05.395Z,50976.97
2022-11-02T19:29:33.897Z,50975.00
2022-11-02T19:32:00.466Z,50949.16
2022-11-02T19:34:27.179Z,50992.88
2022-11-02T19:36:53.930Z,50957.09
2022-11-02T19:39:20.547Z,50905.41
2022-11-02T19:41:51.804Z,50965.06
2022-11-02T19:44:18.740Z,50976.97
2022-11-02T19:46:45.390Z,50957.09
2022-11-02T19:49:12.166Z,50969.03
2022-11-02T19:51:38.826Z,50945.19
2022-11-02T19:54:05.845Z,50957.09
2022-11-02T19:56:33.622Z,50988.91
2022-11-02T19:59:01.094Z,50961.06
2022-11-02T20:01:28.904Z,50945.19
2022-11-02T20:03:56.115Z,50988.91
2022-11-02T20:06:23.078Z,50957.09
2022-11-02T20:08:53.971Z,50980.97
2022-11-02T20:11:20.914Z,50953.13
2022-11-02T20:13:48.415Z,51008.78
2022-11-02T20:16:16.413Z,50945.19
2022-11-02T20:18:43.770Z,50978.97
2022-11-02T20:21:12.237Z,50929.28
2022-11-02T20:23:40.015Z,50937.22
2022-11-02T20:26:08.234Z,50969.03
2022-11-02T20:28:39.407Z,50949.16
2022-11-02T20:31:10.361Z,50949.16
2022-11-02T20:33:37.599Z,50929.28
2022-11-02T20:36:04.957Z,50963.06
2022-11-02T20:38:31.730Z,50945.19
2022-11-02T20:41:11.861Z,50976.97
2022-11-02T20:43:39.903Z,50947.16
2022-11-02T20:49:13.709Z,50937.22
2022-11-02T20:51:48.433Z,50961.06
2022-11-02T20:54:15.058Z,50945.19
2022-11-02T20:56:41.734Z,50933.25
2022-11-02T20:59:08.369Z,50957.09
2022-11-02T21:01:35.302Z,50980.97
2022-11-02T21:04:02.325Z,50973.00
2022-11-02T21:06:28.963Z,50973.00
2022-11-02T21:08:55.711Z,50937.22
2022-11-02T21:11:51.394Z,50953.13
2022-11-02T21:14:17.979Z,50941.19
2022-11-02T21:16:44.582Z,50973.00
2022-11-02T21:19:11.181Z,50969.03
2022-11-02T21:21:37.792Z,50925.31
2022-11-02T21:24:04.769Z,50949.16
2022-11-02T21:26:31.373Z,50957.09
2022-11-02T21:29:00.567Z,50976.97
2022-11-02T21:31:27.214Z,50992.88
2022-11-02T21:33:53.849Z,50945.19
2022-11-02T21:36:20.455Z,50937.22
2022-11-02T21:38:48.690Z,50945.19
2022-11-02T21:41:18.082Z,50957.09
2022-11-02T21:43:44.678Z,50933.25
2022-11-02T21:46:11.280Z,50945.19
2022-11-02T21:48:38.288Z,50961.06
2022-11-02T21:51:09.625Z,50969.03
2022-11-02T21:53:37.459Z,50957.09
2022-11-02T21:56:05.785Z,50937.22
2022-11-02T21:58:32.564Z,50931.25
2022-11-02T22:01:18.706Z,50984.94
2022-11-02T22:03:45.677Z,50965.06
2022-11-02T22:06:12.304Z,50949.16
2022-11-02T22:08:39.205Z,50963.06
2022-11-02T22:11:16.161Z,50937.22
2022-11-02T22:13:43.440Z,50929.28
2022-11-02T22:16:15.159Z,50976.97
2022-11-02T22:18:42.642Z,50953.13
2022-11-02T22:21:09.415Z,50976.97
2022-11-02T22:23:35.992Z,50957.09
2022-11-02T22:26:04.296Z,50941.19
2022-11-02T22:28:31.959Z,50913.38
2022-11-02T22:30:59.018Z,50941.19
2022-11-02T22:33:26.447Z,50933.25
2022-11-02T22:35:53.063Z,50961.06
2022-11-02T22:38:38.264Z,50943.19
2022-11-02T22:41:05.222Z,50965.06
2022-11-02T22:43:31.883Z,50929.28
2022-11-02T22:46:05.685Z,50949.16
2022-11-02T22:48:32.913Z,50980.97
2022-11-02T22:50:59.613Z,50961.06
2022-11-02T22:53:29.067Z,50965.06
2022-11-02T22:55:59.018Z,50949.16
2022-11-02T22:58:26.758Z,50949.16
2022-11-02T23:00:53.605Z,50953.13
2022-11-02T23:03:20.727Z,50976.97
2022-11-02T23:05:47.547Z,50945.19
2022-11-02T23:08:14.289Z,50965.06
2022-11-02T23:10:59.684Z,50929.28
2022-11-02T23:13:26.429Z,50921.31
2022-11-02T23:15:53.117Z,50951.13
2022-11-02T23:18:39.651Z,50963.06
2022-11-02T23:21:06.173Z,50980.97
2022-11-02T23:23:51.606Z,50961.06
2022-11-02T23:26:18.208Z,50976.97
2022-11-02T23:29:03.589Z,50961.06
2022-11-02T23:31:48.828Z,50969.03
2022-11-02T23:34:15.398Z,50963.06
2022-11-02T23:36:42.010Z,50947.16
2022-11-02T23:39:27.347Z,50939.22
2022-11-02T23:41:54.006Z,50953.13
2022-11-02T23:44:20.562Z,50957.09
2022-11-02T23:46:51.211Z,50973.00
2022-11-02T23:49:18.213Z,50980.97
2022-11-02T23:52:03.428Z,50961.06
2022-11-02T23:54:59.363Z,50965.06
2022-11-02T23:57:26.014Z,50992.88
2022-11-02T23:59:52.586Z,50973.00
